createdAt,value
2019-02-06T00:00:48.662Z,36.38
2019-02-06T00:03:21.208Z,39.30
2019-02-06T00:05:50.644Z,35.98
2019-02-06T00:08:20.219Z,33.65
2019-02-06T00:10:49.670Z,36.80
2019-02-06T00:13:19.059Z,28.60
2019-02-06T00:15:48.854Z,25.62
2019-02-06T00:18:18.427Z,30.92
2019-02-06T00:20:47.815Z,23.98
2019-02-06T00:23:17.163Z,28.98
2019-02-06T00:25:46.543Z,24.57
2019-02-06T00:28:15.888Z,30.77
2019-02-06T00:30:45.531Z,30.20
2019-02-06T00:33:14.867Z,27.13
2019-02-06T00:35:44.243Z,27.30
2019-02-06T00:38:13.832Z,27.70
2019-02-06T00:40:43.194Z,29.32
2019-02-06T00:43:12.535Z,31.85
2019-02-06T00:45:42.248Z,27.42
2019-02-06T00:48:11.587Z,29.12
2019-02-06T00:50:40.951Z,26.85
2019-02-06T00:53:10.301Z,23.47
2019-02-06T00:55:39.734Z,27.05
2019-02-06T00:58:09.287Z,33.85
2019-02-06T01:00:39.056Z,24.72
2019-02-06T01:03:08.599Z,28.07
2019-02-06T01:05:38.940Z,40.10
2019-02-06T01:08:08.321Z,31.70
2019-02-06T01:10:37.716Z,39.15
2019-02-06T01:13:07.056Z,33.08
2019-02-06T01:15:36.423Z,40.85
2019-02-06T01:18:05.953Z,43.75
2019-02-06T01:20:35.338Z,39.08
2019-02-06T01:23:04.876Z,50.78
2019-02-06T01:25:34.238Z,42.67
2019-02-06T01:28:03.600Z,51.05
2019-02-06T01:30:39.579Z,56.40
2019-02-06T01:33:08.923Z,46.90
2019-02-06T01:35:49.160Z,48.95
2019-02-06T01:38:09.347Z,51.15
2019-02-06T01:40:38.708Z,39.95
2019-02-06T01:43:08.043Z,43.15
2019-02-06T01:45:37.712Z,44.53
2019-02-06T01:48:07.051Z,48.23
2019-02-06T01:50:36.424Z,41.58
2019-02-06T01:53:05.767Z,43.02
2019-02-06T01:55:35.131Z,41.68
2019-02-06T01:58:04.588Z,40.17
2019-02-06T02:00:34.051Z,39.73
2019-02-06T02:03:03.420Z,52.53
2019-02-06T02:05:32.815Z,56.83
2019-02-06T02:08:02.191Z,41.92
2019-02-06T02:10:31.594Z,68.40
2019-02-06T02:13:00.971Z,53.45
2019-02-06T02:15:30.366Z,55.05
2019-02-06T02:17:59.739Z,53.25
2019-02-06T02:20:29.154Z,53.83
2019-02-06T02:22:58.533Z,43.68
2019-02-06T02:25:27.944Z,45.52
2019-02-06T02:27:57.310Z,41.30
2019-02-06T02:30:34.571Z,35.80
2019-02-06T02:33:03.957Z,40.70
2019-02-06T02:35:33.323Z,44.40
2019-02-06T02:38:02.720Z,59.30
2019-02-06T02:40:32.099Z,58.55
2019-02-06T02:43:01.498Z,52.13
2019-02-06T02:45:31.170Z,62.10
2019-02-06T02:48:00.575Z,47.85
2019-02-06T02:50:29.987Z,53.65
2019-02-06T02:52:59.391Z,42.95
2019-02-06T02:55:28.771Z,50.03
2019-02-06T02:57:58.167Z,48.38
2019-02-06T03:00:53.995Z,41.15
2019-02-06T03:03:36.351Z,49.27
2019-02-06T03:06:05.940Z,59.03
2019-02-06T03:08:35.331Z,65.60
2019-02-06T03:11:05.011Z,72.50
2019-02-06T03:13:34.417Z,68.15
2019-02-06T03:16:03.750Z,72.65
2019-02-06T03:18:33.123Z,59.67
2019-02-06T03:21:02.490Z,68.50
2019-02-06T03:23:31.849Z,83.58
2019-02-06T03:26:01.211Z,62.20
2019-02-06T03:28:30.571Z,56.33
2019-02-06T03:30:59.933Z,63.02
2019-02-06T03:33:29.292Z,49.80
2019-02-06T03:35:58.653Z,42.25
2019-02-06T03:38:28.018Z,60.08
2019-02-06T03:40:57.370Z,68.37
2019-02-06T03:43:26.731Z,64.25
2019-02-06T03:45:56.078Z,78.33
2019-02-06T03:48:25.434Z,95.47
2019-02-06T03:50:54.775Z,89.77
2019-02-06T03:53:24.435Z,75.78
2019-02-06T03:55:53.843Z,74.72
2019-02-06T03:58:23.143Z,91.78
2019-02-06T04:00:52.490Z,74.75
2019-02-06T04:03:21.957Z,66.12
2019-02-06T04:05:51.302Z,99.40
2019-02-06T04:08:20.868Z,76.45
2019-02-06T04:10:50.221Z,77.32
2019-02-06T04:13:19.622Z,61.55
2019-02-06T04:15:48.979Z,86.57
2019-02-06T04:18:18.324Z,85.50
2019-02-06T04:20:47.703Z,83.45
2019-02-06T04:23:18.383Z,77.45
2019-02-06T04:25:47.777Z,75.85
2019-02-06T04:28:17.135Z,87.35
2019-02-06T04:30:46.454Z,87.65
2019-02-06T04:33:15.813Z,78.78
2019-02-06T04:35:45.175Z,84.58
2019-02-06T04:38:15.133Z,73.65
2019-02-06T04:40:44.493Z,69.53
2019-02-06T04:43:13.835Z,70.92
2019-02-06T04:45:43.201Z,79.10
2019-02-06T04:48:12.546Z,81.85
2019-02-06T04:50:41.906Z,88.95
2019-02-06T04:53:15.848Z,85.90
2019-02-06T04:55:45.243Z,89.45
2019-02-06T04:58:14.624Z,93.37
2019-02-06T05:00:44.044Z,82.02
2019-02-06T05:03:13.415Z,88.33
2019-02-06T05:05:43.048Z,87.80
2019-02-06T05:08:12.571Z,91.87
2019-02-06T05:10:41.971Z,88.40
2019-02-06T05:13:11.334Z,101.20
2019-02-06T05:15:40.735Z,88.92
2019-02-06T05:18:10.099Z,91.40
2019-02-06T05:20:40.731Z,75.57
2019-02-06T05:23:10.702Z,90.03
2019-02-06T05:25:40.104Z,91.75
2019-02-06T05:28:09.574Z,87.97
2019-02-06T05:30:38.967Z,89.92
2019-02-06T05:33:08.322Z,97.08
2019-02-06T05:35:37.818Z,92.22
2019-02-06T05:38:07.487Z,91.50
2019-02-06T05:40:36.857Z,85.75
2019-02-06T05:43:06.338Z,86.00
2019-02-06T05:45:35.735Z,81.15
2019-02-06T05:48:05.320Z,91.17
2019-02-06T05:50:34.683Z,92.62
2019-02-06T05:53:04.073Z,86.90
2019-02-06T05:55:33.453Z,99.55
2019-02-06T05:58:02.830Z,94.37
2019-02-06T06:00:36.556Z,96.25
2019-02-06T06:03:05.956Z,105.07
2019-02-06T06:05:35.308Z,94.42
2019-02-06T06:08:04.815Z,94.80
2019-02-06T06:10:34.182Z,90.12
2019-02-06T06:13:03.569Z,92.80
2019-02-06T06:15:32.938Z,80.12
2019-02-06T06:18:02.328Z,89.87
2019-02-06T06:20:31.743Z,102.47
2019-02-06T06:23:01.135Z,100.60
2019-02-06T06:25:30.804Z,96.15
2019-02-06T06:28:00.182Z,110.52
2019-02-06T06:30:29.548Z,102.17
2019-02-06T06:32:59.473Z,102.78
2019-02-06T06:35:28.831Z,105.32
2019-02-06T06:38:01.841Z,92.05
2019-02-06T06:40:29.243Z,96.47
2019-02-06T06:42:58.667Z,106.95
2019-02-06T06:45:28.031Z,106.80
2019-02-06T06:47:57.438Z,106.30
2019-02-06T06:50:26.832Z,116.37
2019-02-06T06:52:56.192Z,116.97
2019-02-06T06:55:25.937Z,112.68
2019-02-06T06:57:55.354Z,113.20
2019-02-06T07:00:26.460Z,106.30
2019-02-06T07:02:55.819Z,121.50
2019-02-06T07:05:25.202Z,87.27
2019-02-06T07:07:54.813Z,102.12
2019-02-06T07:10:24.501Z,114.32
2019-02-06T07:12:53.891Z,119.50
2019-02-06T07:15:25.407Z,120.00
2019-02-06T07:17:54.766Z,118.20
2019-02-06T07:20:24.184Z,118.55
2019-02-06T07:22:53.548Z,105.58
2019-02-06T07:25:23.135Z,110.30
2019-02-06T07:27:52.507Z,101.30
2019-02-06T07:30:32.886Z,99.80
2019-02-06T07:33:02.369Z,106.03
2019-02-06T07:35:31.846Z,99.95
2019-02-06T07:38:01.424Z,110.90
2019-02-06T07:40:30.908Z,108.67
2019-02-06T07:43:00.288Z,111.15
2019-02-06T07:45:29.678Z,108.32
2019-02-06T07:47:59.050Z,107.05
2019-02-06T07:50:30.812Z,105.10
2019-02-06T07:53:00.579Z,101.62
2019-02-06T07:55:30.166Z,104.92
2019-02-06T07:57:59.534Z,112.47
2019-02-06T08:00:28.908Z,99.13
2019-02-06T08:02:58.875Z,114.22
2019-02-06T08:05:28.443Z,107.97
2019-02-06T08:07:58.044Z,108.15
2019-02-06T08:10:29.441Z,92.17
2019-02-06T08:12:58.898Z,96.47
2019-02-06T08:15:28.278Z,99.95
2019-02-06T08:17:57.844Z,109.42
2019-02-06T08:20:27.247Z,98.58
2019-02-06T08:22:56.819Z,113.52
2019-02-06T08:25:26.486Z,107.12
2019-02-06T08:27:55.887Z,112.60
2019-02-06T08:30:36.620Z,97.35
2019-02-06T08:33:06.283Z,100.47
2019-02-06T08:35:36.044Z,100.72
2019-02-06T08:38:05.860Z,106.27
2019-02-06T08:40:35.419Z,77.67
2019-02-06T08:43:04.907Z,91.32
2019-02-06T08:45:34.272Z,95.45
2019-02-06T08:48:03.662Z,104.95
2019-02-06T08:50:33.331Z,84.25
2019-02-06T08:53:02.745Z,75.55
2019-02-06T08:55:32.299Z,76.47
2019-02-06T08:58:01.868Z,76.97
2019-02-06T09:00:33.603Z,72.85
2019-02-06T09:03:03.519Z,86.20
2019-02-06T09:05:33.083Z,88.35
2019-02-06T09:08:02.790Z,75.72
2019-02-06T09:10:32.330Z,80.38
2019-02-06T09:13:01.807Z,78.50
2019-02-06T09:15:31.437Z,78.00
2019-02-06T09:18:00.818Z,67.90
2019-02-06T09:20:30.541Z,64.35
2019-02-06T09:23:00.079Z,76.15
2019-02-06T09:25:29.802Z,68.70
2019-02-06T09:27:59.221Z,66.92
2019-02-06T09:30:30.027Z,59.18
2019-02-06T09:32:59.706Z,58.80
2019-02-06T09:35:29.084Z,66.55
2019-02-06T09:37:58.709Z,66.60
2019-02-06T09:40:29.439Z,63.00
2019-02-06T09:42:58.928Z,66.33
2019-02-06T09:45:28.398Z,61.00
2019-02-06T09:47:57.784Z,47.67
2019-02-06T09:50:35.213Z,61.18
2019-02-06T09:53:04.691Z,62.55
2019-02-06T09:55:34.156Z,52.53
2019-02-06T09:58:03.757Z,60.00
2019-02-06T10:00:35.285Z,63.40
2019-02-06T10:03:05.393Z,62.67
2019-02-06T10:05:34.750Z,62.25
2019-02-06T10:08:04.535Z,59.10
2019-02-06T10:10:33.903Z,70.35
2019-02-06T10:13:03.268Z,62.35
2019-02-06T10:15:34.603Z,65.40
2019-02-06T10:18:04.463Z,66.55
2019-02-06T10:20:36.248Z,73.67
2019-02-06T10:23:06.610Z,62.43
2019-02-06T10:25:36.274Z,62.98
2019-02-06T10:28:05.626Z,74.03
2019-02-06T10:30:46.258Z,60.75
2019-02-06T10:33:18.702Z,58.42
2019-02-06T10:35:46.732Z,69.72
2019-02-06T10:38:16.074Z,65.35
2019-02-06T10:40:45.463Z,64.15
2019-02-06T10:43:15.033Z,73.52
2019-02-06T10:45:44.431Z,70.65
2019-02-06T10:48:13.805Z,71.07
2019-02-06T10:50:46.011Z,67.65
2019-02-06T10:53:15.376Z,64.82
2019-02-06T10:55:44.859Z,60.08
2019-02-06T10:58:14.359Z,52.10
2019-02-06T11:00:49.492Z,59.50
2019-02-06T11:03:19.715Z,60.50
2019-02-06T11:05:49.104Z,55.52
2019-02-06T11:08:18.572Z,46.95
2019-02-06T11:10:48.117Z,57.85
2019-02-06T11:13:17.711Z,53.17
2019-02-06T11:15:47.317Z,51.80
2019-02-06T11:18:16.679Z,59.85
2019-02-06T11:20:46.096Z,48.73
2019-02-06T11:23:15.467Z,60.35
2019-02-06T11:25:44.944Z,58.17
2019-02-06T11:28:14.507Z,48.70
2019-02-06T11:30:44.012Z,57.55
2019-02-06T11:33:13.510Z,47.03
2019-02-06T11:35:42.900Z,61.20
2019-02-06T11:38:12.267Z,60.65
2019-02-06T11:40:41.655Z,52.90
2019-02-06T11:43:11.524Z,50.95
2019-02-06T11:45:40.906Z,49.50
2019-02-06T11:48:10.383Z,53.37
2019-02-06T11:50:41.077Z,53.20
2019-02-06T11:53:18.584Z,59.70
2019-02-06T11:55:48.311Z,52.27
2019-02-06T11:58:17.755Z,53.50
2019-02-06T12:01:09.119Z,55.40
2019-02-06T12:03:38.485Z,56.50
2019-02-06T12:06:07.869Z,56.90
2019-02-06T12:08:37.228Z,56.07
2019-02-06T12:11:06.926Z,50.33
2019-02-06T12:13:36.283Z,48.80
2019-02-06T12:16:05.766Z,54.70
2019-02-06T12:18:35.170Z,49.37
2019-02-06T12:21:04.686Z,51.83
2019-02-06T12:23:34.047Z,52.93
2019-02-06T12:26:03.581Z,52.40
2019-02-06T12:28:32.944Z,51.30
2019-02-06T12:31:02.327Z,53.13
2019-02-06T12:33:31.730Z,51.63
2019-02-06T12:36:01.107Z,46.40
2019-02-06T12:38:30.791Z,54.80
2019-02-06T12:41:00.143Z,50.20
2019-02-06T12:43:29.526Z,49.77
2019-02-06T12:45:58.891Z,45.57
2019-02-06T12:48:28.272Z,54.87
2019-02-06T12:50:57.622Z,57.17
2019-02-06T12:53:50.710Z,51.60
2019-02-06T12:56:20.079Z,46.80
2019-02-06T12:58:49.475Z,58.33
2019-02-06T13:01:18.847Z,56.70
2019-02-06T13:03:48.241Z,46.57
2019-02-06T13:06:17.603Z,51.53
2019-02-06T13:08:47.012Z,49.33
2019-02-06T13:11:16.379Z,40.47
2019-02-06T13:13:45.755Z,44.70
2019-02-06T13:16:15.128Z,49.53
2019-02-06T13:18:44.511Z,46.20
2019-02-06T13:21:13.968Z,41.57
2019-02-06T13:23:43.359Z,53.17
2019-02-06T13:26:12.725Z,49.23
2019-02-06T13:28:42.112Z,44.10
2019-02-06T13:31:11.487Z,49.90
2019-02-06T13:33:40.918Z,43.30
2019-02-06T13:36:11.043Z,51.07
2019-02-06T13:38:40.438Z,50.23
2019-02-06T13:41:09.829Z,42.70
2019-02-06T13:43:39.207Z,46.90
2019-02-06T13:46:08.742Z,53.97
2019-02-06T13:48:38.115Z,42.40
2019-02-06T13:51:16.461Z,43.83
2019-02-06T13:53:38.507Z,49.37
2019-02-06T13:56:07.878Z,49.40
2019-02-06T13:58:37.262Z,50.70
2019-02-06T14:01:06.724Z,45.73
2019-02-06T14:03:36.107Z,52.90
2019-02-06T14:06:06.015Z,52.83
2019-02-06T14:08:35.406Z,46.90
2019-02-06T14:11:04.867Z,45.77
2019-02-06T14:13:34.249Z,50.77
2019-02-06T14:16:03.876Z,47.53
2019-02-06T14:18:33.242Z,51.73
2019-02-06T14:21:02.635Z,49.03
2019-02-06T14:23:56.115Z,52.40
2019-02-06T14:26:45.114Z,55.60
2019-02-06T14:29:52.759Z,48.00
2019-02-06T14:32:56.647Z,40.63
2019-02-06T14:36:00.455Z,39.07
2019-02-06T14:39:15.439Z,47.60
2019-02-06T14:41:53.055Z,40.33
2019-02-06T14:44:49.126Z,50.23
2019-02-06T14:47:32.957Z,49.08
2019-02-06T14:50:51.958Z,50.20
2019-02-06T14:53:52.999Z,41.13
2019-02-06T14:56:56.938Z,47.20
2019-02-06T15:00:05.644Z,41.35
2019-02-06T15:03:04.594Z,54.30
2019-02-06T15:06:19.663Z,45.35
2019-02-06T15:09:31.388Z,50.33
2019-02-06T15:12:41.736Z,50.83
2019-02-06T15:15:53.555Z,46.00
2019-02-06T15:18:48.855Z,48.68
2019-02-06T15:21:31.731Z,55.73
2019-02-06T15:24:26.125Z,41.13
2019-02-06T15:27:41.983Z,43.47
2019-02-06T15:30:46.830Z,44.03
2019-02-06T15:33:40.651Z,47.90
2019-02-06T15:36:33.915Z,38.03
2019-02-06T15:39:35.779Z,40.12
2019-02-06T15:42:31.720Z,41.02
2019-02-06T15:45:35.427Z,36.35
2019-02-06T15:48:36.338Z,31.50
2019-02-06T15:51:37.046Z,38.33
2019-02-06T15:54:31.756Z,29.20
2019-02-06T15:57:42.033Z,32.33
2019-02-06T16:00:48.030Z,28.20
2019-02-06T16:04:17.188Z,32.08
2019-02-06T16:07:15.282Z,35.33
2019-02-06T16:10:25.610Z,38.25
2019-02-06T16:13:24.136Z,36.42
2019-02-06T16:16:19.444Z,33.70
2019-02-06T16:19:24.751Z,35.20
2019-02-06T16:22:12.355Z,39.85
2019-02-06T16:25:07.083Z,33.60
2019-02-06T16:27:58.315Z,35.17
2019-02-06T16:30:49.775Z,38.85
2019-02-06T16:34:01.952Z,41.13
2019-02-06T16:36:51.927Z,39.33
2019-02-06T16:39:58.999Z,41.85
2019-02-06T16:43:08.339Z,46.23
2019-02-06T16:46:20.500Z,33.85
2019-02-06T16:49:51.765Z,30.15
2019-02-06T16:52:46.348Z,31.15
2019-02-06T16:55:51.706Z,33.45
2019-02-06T16:59:10.835Z,33.67
2019-02-06T17:02:01.585Z,31.30
2019-02-06T17:04:49.047Z,31.55
2019-02-06T17:07:51.254Z,28.20
2019-02-06T17:10:57.286Z,33.90
2019-02-06T17:13:59.374Z,39.27
2019-02-06T17:17:22.099Z,33.50
2019-02-06T17:20:50.779Z,27.75
2019-02-06T17:23:49.675Z,38.65
2019-02-06T17:27:09.628Z,37.05
2019-02-06T17:30:25.935Z,40.85
2019-02-06T17:33:37.559Z,32.20
2019-02-06T17:36:37.080Z,37.10
2019-02-06T17:39:27.631Z,47.45
2019-02-06T17:42:15.851Z,50.70
2019-02-06T17:45:14.521Z,34.53
2019-02-06T17:48:22.058Z,39.53
2019-02-06T17:51:11.198Z,42.13
2019-02-06T17:54:01.798Z,46.20
2019-02-06T17:56:31.175Z,46.80
2019-02-06T17:59:00.548Z,45.58
2019-02-06T18:01:39.352Z,43.20
2019-02-06T18:04:11.406Z,40.28
2019-02-06T18:06:40.891Z,44.03
2019-02-06T18:09:15.575Z,41.95
2019-02-06T18:11:46.120Z,30.20
2019-02-06T18:14:15.482Z,28.02
2019-02-06T18:16:44.887Z,37.98
2019-02-06T18:19:14.298Z,37.15
2019-02-06T18:21:43.699Z,44.33
2019-02-06T18:24:13.310Z,36.68
2019-02-06T18:26:47.043Z,37.80
2019-02-06T18:29:16.634Z,47.27
2019-02-06T18:31:46.015Z,42.83
2019-02-06T18:34:15.576Z,36.30
2019-02-06T18:36:44.958Z,39.23
2019-02-06T18:39:15.874Z,39.25
2019-02-06T18:41:45.264Z,34.08
2019-02-06T18:44:14.631Z,36.98
2019-02-06T18:46:45.614Z,28.75
2019-02-06T18:49:15.209Z,30.00
2019-02-06T18:51:45.462Z,44.38
2019-02-06T18:54:14.821Z,36.80
2019-02-06T18:56:44.511Z,45.60
2019-02-06T18:59:13.869Z,44.23
2019-02-06T19:01:43.298Z,38.50
2019-02-06T19:04:17.636Z,35.78
2019-02-06T19:06:47.016Z,28.32
2019-02-06T19:09:17.280Z,37.53
2019-02-06T19:11:46.776Z,39.25
2019-02-06T19:14:16.307Z,38.20
2019-02-06T19:16:45.691Z,41.83
2019-02-06T19:19:24.833Z,37.65
2019-02-06T19:21:46.100Z,45.20
2019-02-06T19:24:17.738Z,39.65
2019-02-06T19:26:46.547Z,41.98
2019-02-06T19:29:15.906Z,44.65
2019-02-06T19:31:45.627Z,43.20
2019-02-06T19:34:14.987Z,48.17
2019-02-06T19:36:44.367Z,47.48
2019-02-06T19:39:13.732Z,47.05
2019-02-06T19:41:43.118Z,35.98
2019-02-06T19:44:12.473Z,44.13
2019-02-06T19:46:41.851Z,34.08
2019-02-06T19:49:11.314Z,33.80
2019-02-06T19:51:40.698Z,33.88
2019-02-06T19:54:10.063Z,40.75
2019-02-06T19:56:39.451Z,36.25
2019-02-06T19:59:08.816Z,43.38
2019-02-06T20:01:38.262Z,35.10
2019-02-06T20:04:07.631Z,39.33
2019-02-06T20:06:37.214Z,42.98
2019-02-06T20:09:11.344Z,43.50
2019-02-06T20:11:40.735Z,41.85
2019-02-06T20:14:10.448Z,47.25
2019-02-06T20:16:39.827Z,46.58
2019-02-06T20:19:09.207Z,40.50
2019-02-06T20:21:38.585Z,43.60
2019-02-06T20:24:08.383Z,42.40
2019-02-06T20:26:37.749Z,44.18
2019-02-06T20:29:07.136Z,48.13
2019-02-06T20:31:36.499Z,42.33
2019-02-06T20:34:06.036Z,44.55
2019-02-06T20:36:35.407Z,43.83
2019-02-06T20:39:07.988Z,53.30
2019-02-06T20:41:37.351Z,46.37
2019-02-06T20:44:06.843Z,39.80
2019-02-06T20:46:36.194Z,42.15
2019-02-06T20:49:05.676Z,46.98
2019-02-06T20:51:35.036Z,42.98
2019-02-06T20:54:04.814Z,54.83
2019-02-06T20:56:34.184Z,50.43
2019-02-06T20:59:03.563Z,48.55
2019-02-06T21:01:32.918Z,43.75
2019-02-06T21:04:02.302Z,45.12
2019-02-06T21:06:31.659Z,39.60
2019-02-06T21:09:01.043Z,46.63
2019-02-06T21:11:30.712Z,40.67
2019-02-06T21:14:00.161Z,49.45
2019-02-06T21:16:29.524Z,45.95
2019-02-06T21:18:58.906Z,47.67
2019-02-06T21:21:28.291Z,51.63
2019-02-06T21:23:57.675Z,56.68
2019-02-06T21:26:27.230Z,55.65
2019-02-06T21:28:56.617Z,49.23
2019-02-06T21:31:25.980Z,45.67
2019-02-06T21:33:55.363Z,61.92
2019-02-06T21:36:24.730Z,50.88
2019-02-06T21:38:54.137Z,61.08
2019-02-06T21:41:23.792Z,61.42
2019-02-06T21:43:53.262Z,64.82
2019-02-06T21:46:22.647Z,197.45
2019-02-06T21:48:52.035Z,110.45
2019-02-06T21:51:21.407Z,54.05
2019-02-06T21:53:50.791Z,57.00
2019-02-06T21:56:20.249Z,48.35
2019-02-06T21:58:49.606Z,50.65
2019-02-06T22:01:19.003Z,52.65
2019-02-06T22:03:48.382Z,44.48
2019-02-06T22:06:17.759Z,49.05
2019-02-06T22:08:47.120Z,68.42
2019-02-06T22:11:16.811Z,60.60
2019-02-06T22:13:54.963Z,51.88
2019-02-06T22:16:17.198Z,43.70
2019-02-06T22:18:46.572Z,42.48
2019-02-06T22:21:15.974Z,43.30
2019-02-06T22:23:45.327Z,47.40
2019-02-06T22:26:14.919Z,42.17
2019-02-06T22:28:44.278Z,50.20
2019-02-06T22:31:13.663Z,47.58
2019-02-06T22:33:43.027Z,45.70
2019-02-06T22:36:12.407Z,41.15
2019-02-06T22:38:41.775Z,36.90
2019-02-06T22:41:11.408Z,46.13
2019-02-06T22:43:40.739Z,47.38
2019-02-06T22:46:10.155Z,42.65
2019-02-06T22:48:39.512Z,46.48
2019-02-06T22:51:08.903Z,58.83
2019-02-06T22:53:38.259Z,41.77
2019-02-06T22:56:07.754Z,39.63
2019-02-06T22:58:37.115Z,33.25
2019-02-06T23:01:34.947Z,44.15
2019-02-06T23:04:04.813Z,48.28
2019-02-06T23:06:34.199Z,37.42
2019-02-06T23:09:05.207Z,43.58
2019-02-06T23:11:34.542Z,34.48
2019-02-06T23:14:04.000Z,39.35
2019-02-06T23:16:33.483Z,46.68
2019-02-06T23:19:02.945Z,41.58
2019-02-06T23:21:32.359Z,46.30
2019-02-06T23:24:01.714Z,37.78
2019-02-06T23:26:31.098Z,42.15
2019-02-06T23:29:00.457Z,41.77
2019-02-06T23:31:29.831Z,36.10
2019-02-06T23:33:59.199Z,43.80
2019-02-06T23:36:28.575Z,55.20
2019-02-06T23:38:57.945Z,56.50
2019-02-06T23:41:27.300Z,55.20
2019-02-06T23:43:56.678Z,47.70
2019-02-06T23:46:26.049Z,42.78
2019-02-06T23:48:55.427Z,48.50
2019-02-06T23:51:24.796Z,42.90
2019-02-06T23:53:54.239Z,52.10
2019-02-06T23:56:23.654Z,40.12
2019-02-06T23:58:53.041Z,40.23
